createdAt,value
2023-05-12T00:02:13.650Z,4.10
2023-05-12T00:07:20.558Z,4.30
2023-05-12T00:12:28.754Z,4.07
2023-05-12T00:17:35.273Z,3.38
2023-05-12T00:22:43.229Z,4.10
2023-05-12T00:27:51.079Z,3.47
2023-05-12T00:32:57.766Z,3.80
2023-05-12T00:38:04.380Z,3.90
2023-05-12T00:43:12.404Z,4.18
2023-05-12T00:48:18.839Z,4.10
2023-05-12T00:53:32.551Z,3.50
2023-05-12T00:58:47.449Z,3.72
2023-05-12T01:03:55.561Z,3.65
2023-05-12T01:09:02.420Z,3.90
2023-05-12T01:14:10.392Z,3.30
2023-05-12T01:19:34.877Z,3.28
2023-05-12T01:24:51.892Z,3.45
2023-05-12T01:30:03.565Z,3.63
2023-05-12T01:35:16.036Z,3.58
2023-05-12T01:40:28.300Z,3.40
2023-05-12T01:45:39.093Z,3.55
2023-05-12T01:50:45.821Z,3.88
2023-05-12T01:55:58.210Z,3.10
2023-05-12T02:01:07.912Z,3.10
2023-05-12T02:06:15.303Z,3.13
2023-05-12T02:11:24.978Z,3.75
2023-05-12T02:16:32.961Z,3.13
2023-05-12T02:21:40.279Z,3.45
2023-05-12T02:26:46.667Z,3.50
2023-05-12T02:31:55.157Z,3.10
2023-05-12T02:37:01.771Z,3.70
2023-05-12T02:42:09.441Z,3.25
2023-05-12T02:47:17.654Z,3.03
2023-05-12T02:52:25.758Z,3.53
2023-05-12T02:57:34.379Z,3.58
2023-05-12T03:02:43.442Z,3.35
2023-05-12T03:07:51.948Z,3.40
2023-05-12T03:13:02.090Z,2.97
2023-05-12T03:18:09.955Z,3.17
2023-05-12T03:23:17.197Z,3.00
2023-05-12T03:28:25.106Z,3.07
2023-05-12T03:33:33.280Z,3.17
2023-05-12T03:38:39.784Z,3.22
2023-05-12T03:43:46.375Z,2.70
2023-05-12T03:48:54.927Z,2.80
2023-05-12T03:54:01.149Z,3.42
2023-05-12T03:59:07.890Z,2.92
2023-05-12T04:04:18.888Z,3.13
2023-05-12T04:09:25.412Z,2.40
2023-05-12T04:14:42.203Z,2.95
2023-05-12T04:19:52.976Z,3.38
2023-05-12T04:24:59.785Z,2.75
2023-05-12T04:30:07.951Z,2.20
2023-05-12T04:35:18.198Z,2.40
2023-05-12T04:40:26.615Z,3.08
2023-05-12T04:45:33.299Z,2.53
2023-05-12T04:50:41.842Z,2.70
2023-05-12T04:55:50.400Z,2.85
2023-05-12T05:00:57.374Z,2.50
2023-05-12T05:06:05.592Z,2.25
2023-05-12T05:11:12.518Z,2.22
2023-05-12T05:16:19.269Z,2.60
2023-05-12T05:21:29.129Z,2.47
2023-05-12T05:26:36.071Z,1.87
2023-05-12T05:31:42.982Z,2.72
2023-05-12T05:36:52.145Z,2.45
2023-05-12T05:41:59.024Z,2.72
2023-05-12T05:47:06.421Z,2.22
2023-05-12T05:52:15.526Z,2.27
2023-05-12T05:57:23.364Z,2.22
2023-05-12T06:02:30.577Z,2.10
2023-05-12T06:07:39.781Z,2.13
2023-05-12T06:12:46.362Z,2.08
2023-05-12T06:17:52.929Z,2.88
2023-05-12T06:23:02.017Z,2.20
2023-05-12T06:28:08.895Z,2.15
2023-05-12T06:33:15.343Z,2.08
2023-05-12T06:38:23.222Z,2.60
2023-05-12T06:43:30.001Z,2.00
2023-05-12T06:48:36.713Z,2.00
2023-05-12T06:53:45.239Z,2.35
2023-05-12T06:58:52.900Z,1.90
2023-05-12T07:04:01.263Z,1.88
2023-05-12T07:09:09.463Z,2.20
2023-05-12T07:14:15.913Z,1.73
2023-05-12T07:19:23.476Z,2.42
2023-05-12T07:24:35.528Z,1.77
2023-05-12T07:29:41.878Z,2.00
2023-05-12T07:34:48.063Z,2.30
2023-05-12T07:39:56.111Z,1.70
2023-05-12T07:45:03.988Z,1.50
2023-05-12T07:50:12.392Z,1.40
2023-05-12T07:55:22.319Z,2.00
2023-05-12T08:00:29.177Z,1.88
2023-05-12T08:05:36.013Z,1.60
2023-05-12T08:10:43.828Z,1.58
2023-05-12T08:15:52.097Z,1.60
2023-05-12T08:20:58.754Z,1.30
2023-05-12T08:26:07.027Z,1.40
2023-05-12T08:31:13.733Z,2.37
2023-05-12T08:36:20.208Z,1.40
2023-05-12T08:41:41.952Z,1.33
2023-05-12T08:46:49.648Z,1.40
2023-05-12T08:51:58.635Z,1.60
2023-05-12T08:57:10.466Z,1.50
2023-05-12T09:02:19.208Z,1.70
2023-05-12T09:07:27.081Z,1.42
2023-05-12T09:12:39.394Z,1.80
2023-05-12T09:17:45.973Z,1.50
2023-05-12T09:22:52.616Z,1.30
2023-05-12T09:28:00.498Z,1.30
2023-05-12T09:33:10.560Z,1.48
2023-05-12T09:38:17.299Z,1.30
2023-05-12T09:43:25.473Z,1.55
2023-05-12T09:48:32.994Z,1.60
2023-05-12T09:53:45.189Z,1.20
2023-05-12T09:58:53.090Z,1.67
2023-05-12T10:04:01.331Z,4.47
2023-05-12T10:09:17.830Z,1.30
2023-05-12T10:14:26.649Z,1.35
2023-05-12T10:19:34.488Z,1.42
2023-05-12T10:24:43.574Z,1.92
2023-05-12T10:29:53.630Z,1.27
2023-05-12T10:35:10.817Z,2.47
2023-05-12T10:40:27.152Z,1.50
2023-05-12T10:45:39.528Z,0.95
2023-05-12T10:50:55.769Z,1.20
2023-05-12T10:56:06.960Z,2.28
2023-05-12T11:01:16.808Z,1.75
2023-05-12T11:06:24.262Z,1.15
2023-05-12T11:11:32.132Z,1.27
2023-05-12T11:16:49.846Z,1.23
2023-05-12T11:21:57.067Z,1.15
2023-05-12T11:27:04.476Z,1.38
2023-05-12T11:32:15.314Z,1.75
2023-05-12T11:37:21.748Z,1.48
2023-05-12T11:42:28.180Z,1.48
2023-05-12T11:47:36.337Z,1.00
2023-05-12T11:52:43.195Z,1.35
2023-05-12T11:58:02.461Z,1.33
2023-05-12T12:03:16.144Z,1.48
2023-05-12T12:08:22.917Z,3.13
2023-05-12T12:13:30.933Z,1.10
2023-05-12T12:18:38.940Z,1.30
2023-05-12T12:23:51.233Z,1.53
2023-05-12T12:28:58.354Z,2.00
2023-05-12T12:34:06.796Z,3.10
2023-05-12T12:39:13.903Z,1.58
2023-05-12T12:44:23.186Z,3.08
2023-05-12T12:49:31.076Z,2.42
2023-05-12T12:54:37.940Z,1.13
2023-05-12T12:59:44.401Z,1.30
2023-05-12T13:04:52.558Z,1.27
2023-05-12T13:09:59.615Z,2.25
2023-05-12T13:15:07.661Z,1.85
2023-05-12T13:20:16.382Z,2.65
2023-05-12T13:25:22.987Z,1.95
2023-05-12T13:30:29.764Z,1.48
2023-05-12T13:35:37.661Z,2.00
2023-05-12T13:40:44.060Z,1.27
2023-05-12T13:45:50.941Z,1.35
2023-05-12T13:50:58.969Z,11.93
2023-05-12T13:56:06.089Z,1.87
2023-05-12T14:01:12.968Z,1.73
2023-05-12T14:06:20.711Z,1.65
2023-05-12T14:11:27.279Z,1.60
2023-05-12T14:16:33.751Z,1.58
2023-05-12T14:21:42.330Z,1.10
2023-05-12T14:26:48.789Z,1.60
2023-05-12T14:31:55.656Z,1.58
2023-05-12T14:37:03.802Z,1.35
2023-05-12T14:42:10.463Z,1.30
2023-05-12T14:47:17.125Z,1.42
2023-05-12T14:52:26.903Z,1.63
2023-05-12T14:57:36.062Z,1.40
2023-05-12T15:02:45.093Z,1.52
2023-05-12T15:07:53.018Z,1.08
2023-05-12T15:12:59.538Z,1.23
2023-05-12T15:18:06.102Z,1.48
2023-05-12T15:23:13.924Z,1.27
2023-05-12T15:28:22.037Z,1.87
2023-05-12T15:33:29.858Z,1.80
2023-05-12T15:38:38.477Z,1.35
2023-05-12T15:43:45.134Z,2.00
2023-05-12T15:48:53.741Z,1.60
2023-05-12T15:54:03.072Z,1.60
2023-05-12T15:59:10.207Z,1.08
2023-05-12T16:04:17.691Z,1.30
2023-05-12T16:09:26.902Z,1.38
2023-05-12T16:14:33.497Z,1.05
2023-05-12T16:19:40.119Z,1.00
2023-05-12T16:24:49.096Z,1.30
2023-05-12T16:29:55.889Z,1.27
2023-05-12T16:35:02.600Z,0.95
2023-05-12T16:40:13.247Z,1.73
2023-05-12T16:45:21.712Z,1.48
2023-05-12T16:55:36.552Z,1.10
2023-05-12T17:00:43.313Z,1.73
2023-05-12T17:05:52.079Z,2.00
2023-05-12T17:11:00.019Z,2.05
2023-05-12T17:16:08.227Z,3.40
2023-05-12T17:21:14.563Z,1.48
2023-05-12T17:26:22.894Z,2.92
2023-05-12T17:31:29.447Z,1.90
2023-05-12T17:36:36.447Z,3.55
2023-05-12T17:41:44.478Z,2.00
2023-05-12T17:46:51.275Z,2.50
2023-05-12T17:51:58.130Z,2.03
2023-05-12T17:57:07.885Z,1.83
2023-05-12T18:02:14.979Z,3.35
2023-05-12T18:07:22.798Z,1.80
2023-05-12T18:12:33.328Z,2.65
2023-05-12T18:17:40.467Z,2.90
2023-05-12T18:22:47.602Z,2.60
2023-05-12T18:27:56.002Z,2.78
2023-05-12T18:33:02.701Z,2.65
2023-05-12T18:38:09.561Z,2.60
2023-05-12T18:43:18.137Z,3.05
2023-05-12T18:48:25.097Z,2.83
2023-05-12T18:53:32.180Z,2.35
2023-05-12T18:58:41.998Z,3.70
2023-05-12T19:03:49.052Z,2.70
2023-05-12T19:08:56.624Z,4.65
2023-05-12T19:14:05.927Z,5.45
2023-05-12T19:19:13.536Z,3.45
2023-05-12T19:24:20.726Z,3.50
2023-05-12T19:29:29.013Z,3.13
2023-05-12T19:34:37.271Z,4.20
2023-05-12T19:39:44.200Z,4.07
2023-05-12T19:44:53.481Z,4.03
2023-05-12T19:55:08.831Z,11.88
2023-05-12T20:00:19.266Z,12.70
2023-05-12T20:05:27.869Z,8.00
2023-05-12T20:10:34.885Z,10.30
2023-05-12T20:15:44.514Z,8.27
2023-05-12T20:20:52.031Z,5.63
2023-05-12T20:25:59.154Z,7.22
2023-05-12T20:31:08.907Z,7.20
2023-05-12T20:36:16.177Z,7.47
2023-05-12T20:41:23.514Z,7.70
2023-05-12T20:46:31.926Z,7.22
2023-05-12T20:51:40.241Z,8.07
2023-05-12T20:56:47.322Z,7.88
2023-05-12T21:01:55.723Z,8.95
2023-05-12T21:07:02.781Z,10.77
2023-05-12T21:12:10.918Z,8.88
2023-05-12T21:17:20.030Z,9.57
2023-05-12T21:22:28.101Z,9.70
2023-05-12T21:27:36.677Z,9.20
2023-05-12T21:32:45.166Z,10.45
2023-05-12T21:37:52.044Z,11.33
2023-05-12T21:42:58.935Z,11.82
2023-05-12T21:48:07.883Z,12.25
2023-05-12T21:53:15.208Z,13.63
2023-05-12T21:58:23.927Z,16.33
2023-05-12T22:03:32.477Z,11.23
2023-05-12T22:08:39.479Z,13.18
2023-05-12T22:13:46.142Z,19.50
2023-05-12T22:18:54.577Z,24.45
2023-05-12T22:24:01.572Z,22.67
2023-05-12T22:29:08.539Z,26.40
2023-05-12T22:34:16.725Z,26.20
2023-05-12T22:39:23.967Z,22.80
2023-05-12T22:44:31.188Z,27.35
2023-05-12T22:49:39.414Z,25.95
2023-05-12T22:54:45.939Z,26.83
2023-05-12T22:59:53.351Z,27.02
2023-05-12T23:05:01.903Z,26.33
2023-05-12T23:10:11.564Z,23.25
2023-05-12T23:15:18.468Z,21.37
2023-05-12T23:20:26.942Z,22.73
2023-05-12T23:25:35.559Z,22.90
2023-05-12T23:30:42.462Z,22.30
2023-05-12T23:35:50.611Z,21.38
2023-05-12T23:40:57.006Z,21.70
2023-05-12T23:46:03.736Z,21.70
2023-05-12T23:51:11.843Z,22.65
2023-05-12T23:56:18.341Z,23.58
